sensor_id;sensor_type;location;lat;lon;timestamp;P1;durP1;ratioP1;P2;durP2;ratioP2
24799;SDS011;12897;50.812;4.430;2023-02-21T00:00:03;53.52;;;29.42;;
24799;SDS011;12897;50.812;4.430;2023-02-21T00:02:48;58.95;;;30.68;;
24799;SDS011;12897;50.812;4.430;2023-02-21T00:05:34;58.95;;;28.60;;
24799;SDS011;12897;50.812;4.430;2023-02-21T00:08:20;61.63;;;30.97;;
24799;SDS011;12897;50.812;4.430;2023-02-21T00:11:05;66.92;;;32.42;;
24799;SDS011;12897;50.812;4.430;2023-02-21T00:13:51;67.42;;;32.08;;
24799;SDS011;12897;50.812;4.430;2023-02-21T00:16:37;64.15;;;32.30;;
24799;SDS011;12897;50.812;4.430;2023-02-21T00:19:22;67.08;;;33.58;;
24799;SDS011;12897;50.812;4.430;2023-02-21T00:22:08;65.50;;;32.67;;
24799;SDS011;12897;50.812;4.430;2023-02-21T00:24:54;65.62;;;34.43;;
24799;SDS011;12897;50.812;4.430;2023-02-21T00:27:39;67.53;;;33.90;;
24799;SDS011;12897;50.812;4.430;2023-02-21T00:30:25;72.30;;;35.55;;
24799;SDS011;12897;50.812;4.430;2023-02-21T00:33:11;69.47;;;33.20;;
24799;SDS011;12897;50.812;4.430;2023-02-21T00:35:56;69.27;;;32.65;;
24799;SDS011;12897;50.812;4.430;2023-02-21T00:38:41;54.93;;;30.50;;
24799;SDS011;12897;50.812;4.430;2023-02-21T00:41:27;56.10;;;30.40;;
24799;SDS011;12897;50.812;4.430;2023-02-21T00:44:13;58.73;;;30.35;;
24799;SDS011;12897;50.812;4.430;2023-02-21T00:46:58;52.35;;;29.63;;
24799;SDS011;12897;50.812;4.430;2023-02-21T00:49:44;57.20;;;29.30;;
24799;SDS011;12897;50.812;4.430;2023-02-21T00:52:30;51.70;;;27.93;;
24799;SDS011;12897;50.812;4.430;2023-02-21T00:55:15;49.13;;;27.15;;
24799;SDS011;12897;50.812;4.430;2023-02-21T00:58:01;46.68;;;25.97;;
24799;SDS011;12897;50.812;4.430;2023-02-21T01:00:48;50.25;;;27.02;;
24799;SDS011;12897;50.812;4.430;2023-02-21T01:03:33;53.23;;;27.58;;
24799;SDS011;12897;50.812;4.430;2023-02-21T01:06:19;47.38;;;26.07;;
24799;SDS011;12897;50.812;4.430;2023-02-21T01:09:05;48.00;;;27.13;;
24799;SDS011;12897;50.812;4.430;2023-02-21T01:11:50;51.58;;;28.32;;
24799;SDS011;12897;50.812;4.430;2023-02-21T01:14:35;58.60;;;28.25;;
24799;SDS011;12897;50.812;4.430;2023-02-21T01:17:21;51.20;;;28.00;;
24799;SDS011;12897;50.812;4.430;2023-02-21T01:20:07;53.02;;;28.00;;
24799;SDS011;12897;50.812;4.430;2023-02-21T01:22:52;52.15;;;27.10;;
24799;SDS011;12897;50.812;4.430;2023-02-21T01:25:38;52.60;;;27.13;;
24799;SDS011;12897;50.812;4.430;2023-02-21T01:28:24;57.27;;;27.48;;
24799;SDS011;12897;50.812;4.430;2023-02-21T01:31:09;51.40;;;26.55;;
24799;SDS011;12897;50.812;4.430;2023-02-21T01:33:55;53.30;;;26.25;;
24799;SDS011;12897;50.812;4.430;2023-02-21T01:36:41;56.65;;;26.85;;
24799;SDS011;12897;50.812;4.430;2023-02-21T01:39:26;54.53;;;25.90;;
24799;SDS011;12897;50.812;4.430;2023-02-21T01:42:12;55.03;;;26.48;;
24799;SDS011;12897;50.812;4.430;2023-02-21T01:48:07;55.55;;;26.02;;
24799;SDS011;12897;50.812;4.430;2023-02-21T01:50:57;51.73;;;25.48;;
24799;SDS011;12897;50.812;4.430;2023-02-21T01:53:45;46.18;;;23.90;;
24799;SDS011;12897;50.812;4.430;2023-02-21T01:56:31;42.85;;;22.58;;
24799;SDS011;12897;50.812;4.430;2023-02-21T01:59:17;38.02;;;21.62;;
24799;SDS011;12897;50.812;4.430;2023-02-21T02:02:08;46.40;;;22.20;;
24799;SDS011;12897;50.812;4.430;2023-02-21T02:05:06;40.90;;;22.10;;
24799;SDS011;12897;50.812;4.430;2023-02-21T02:07:53;38.67;;;22.50;;
24799;SDS011;12897;50.812;4.430;2023-02-21T02:10:40;39.18;;;21.62;;
24799;SDS011;12897;50.812;4.430;2023-02-21T02:13:51;42.85;;;22.73;;
24799;SDS011;12897;50.812;4.430;2023-02-21T02:16:43;41.15;;;21.25;;
24799;SDS011;12897;50.812;4.430;2023-02-21T02:22:07;37.25;;;20.55;;
24799;SDS011;12897;50.812;4.430;2023-02-21T02:25:13;42.85;;;20.37;;
24799;SDS011;12897;50.812;4.430;2023-02-21T02:30:30;35.35;;;19.95;;
24799;SDS011;12897;50.812;4.430;2023-02-21T02:33:10;35.50;;;20.48;;
24799;SDS011;12897;50.812;4.430;2023-02-21T02:35:51;35.33;;;19.40;;
24799;SDS011;12897;50.812;4.430;2023-02-21T02:38:20;44.10;;;21.33;;
24799;SDS011;12897;50.812;4.430;2023-02-21T02:40:58;38.25;;;19.35;;
24799;SDS011;12897;50.812;4.430;2023-02-21T02:43:31;36.70;;;19.87;;
24799;SDS011;12897;50.812;4.430;2023-02-21T02:46:32;35.63;;;19.67;;
24799;SDS011;12897;50.812;4.430;2023-02-21T02:48:55;37.00;;;19.82;;
24799;SDS011;12897;50.812;4.430;2023-02-21T02:51:33;36.45;;;19.70;;
24799;SDS011;12897;50.812;4.430;2023-02-21T02:54:01;33.70;;;19.10;;
24799;SDS011;12897;50.812;4.430;2023-02-21T02:56:29;39.05;;;19.15;;
24799;SDS011;12897;50.812;4.430;2023-02-21T03:07:10;40.43;;;19.80;;
24799;SDS011;12897;50.812;4.430;2023-02-21T03:15:10;42.03;;;21.10;;
24799;SDS011;12897;50.812;4.430;2023-02-21T03:17:42;43.50;;;20.75;;
24799;SDS011;12897;50.812;4.430;2023-02-21T03:20:12;43.90;;;21.42;;
24799;SDS011;12897;50.812;4.430;2023-02-21T03:22:41;43.45;;;20.23;;
24799;SDS011;12897;50.812;4.430;2023-02-21T03:25:11;41.95;;;20.23;;
24799;SDS011;12897;50.812;4.430;2023-02-21T03:27:40;40.90;;;20.48;;
24799;SDS011;12897;50.812;4.430;2023-02-21T03:30:10;46.70;;;21.80;;
24799;SDS011;12897;50.812;4.430;2023-02-21T03:32:48;42.00;;;19.95;;
24799;SDS011;12897;50.812;4.430;2023-02-21T03:35:16;40.65;;;20.23;;
24799;SDS011;12897;50.812;4.430;2023-02-21T03:37:46;43.60;;;20.45;;
24799;SDS011;12897;50.812;4.430;2023-02-21T03:40:21;44.27;;;21.02;;
24799;SDS011;12897;50.812;4.430;2023-02-21T03:42:50;42.03;;;20.80;;
24799;SDS011;12897;50.812;4.430;2023-02-21T03:45:19;38.63;;;19.35;;
24799;SDS011;12897;50.812;4.430;2023-02-21T03:47:47;38.35;;;19.02;;
24799;SDS011;12897;50.812;4.430;2023-02-21T03:50:14;38.78;;;18.67;;
24799;SDS011;12897;50.812;4.430;2023-02-21T03:52:42;39.50;;;19.75;;
24799;SDS011;12897;50.812;4.430;2023-02-21T03:55:10;38.13;;;19.05;;
24799;SDS011;12897;50.812;4.430;2023-02-21T03:57:38;36.50;;;17.45;;
24799;SDS011;12897;50.812;4.430;2023-02-21T04:00:05;32.98;;;16.20;;
24799;SDS011;12897;50.812;4.430;2023-02-21T04:02:34;32.53;;;16.97;;
24799;SDS011;12897;50.812;4.430;2023-02-21T04:05:02;37.63;;;17.70;;
24799;SDS011;12897;50.812;4.430;2023-02-21T04:07:30;33.30;;;16.93;;
24799;SDS011;12897;50.812;4.430;2023-02-21T04:09:58;29.52;;;15.85;;
24799;SDS011;12897;50.812;4.430;2023-02-21T04:12:25;31.85;;;17.00;;
24799;SDS011;12897;50.812;4.430;2023-02-21T04:14:53;30.77;;;16.17;;
24799;SDS011;12897;50.812;4.430;2023-02-21T04:17:22;27.80;;;15.10;;
24799;SDS011;12897;50.812;4.430;2023-02-21T04:19:50;31.48;;;14.68;;
24799;SDS011;12897;50.812;4.430;2023-02-21T04:22:18;28.47;;;15.40;;
24799;SDS011;12897;50.812;4.430;2023-02-21T04:24:47;30.77;;;15.15;;
24799;SDS011;12897;50.812;4.430;2023-02-21T04:27:14;36.63;;;16.32;;
24799;SDS011;12897;50.812;4.430;2023-02-21T04:29:42;32.55;;;15.43;;
24799;SDS011;12897;50.812;4.430;2023-02-21T04:32:09;29.20;;;14.68;;
24799;SDS011;12897;50.812;4.430;2023-02-21T04:34:37;27.73;;;14.85;;
24799;SDS011;12897;50.812;4.430;2023-02-21T04:37:04;25.55;;;13.72;;
24799;SDS011;12897;50.812;4.430;2023-02-21T04:39:32;28.67;;;15.08;;
24799;SDS011;12897;50.812;4.430;2023-02-21T04:41:59;27.32;;;14.58;;
24799;SDS011;12897;50.812;4.430;2023-02-21T04:44:27;28.32;;;14.60;;
24799;SDS011;12897;50.812;4.430;2023-02-21T04:46:54;28.62;;;14.53;;
24799;SDS011;12897;50.812;4.430;2023-02-21T04:49:22;27.22;;;13.58;;
24799;SDS011;12897;50.812;4.430;2023-02-21T04:51:51;28.80;;;13.67;;
24799;SDS011;12897;50.812;4.430;2023-02-21T04:54:19;29.18;;;14.58;;
24799;SDS011;12897;50.812;4.430;2023-02-21T04:56:47;24.25;;;13.18;;
24799;SDS011;12897;50.812;4.430;2023-02-21T04:59:15;25.57;;;13.58;;
24799;SDS011;12897;50.812;4.430;2023-02-21T05:01:43;24.77;;;13.15;;
24799;SDS011;12897;50.812;4.430;2023-02-21T05:04:10;24.63;;;12.68;;
24799;SDS011;12897;50.812;4.430;2023-02-21T05:06:38;20.97;;;12.43;;
24799;SDS011;12897;50.812;4.430;2023-02-21T05:09:05;21.73;;;11.97;;
24799;SDS011;12897;50.812;4.430;2023-02-21T05:11:33;25.92;;;13.03;;
24799;SDS011;12897;50.812;4.430;2023-02-21T05:14:01;22.98;;;12.23;;
24799;SDS011;12897;50.812;4.430;2023-02-21T05:16:29;20.88;;;11.03;;
24799;SDS011;12897;50.812;4.430;2023-02-21T05:18:56;24.45;;;11.88;;
24799;SDS011;12897;50.812;4.430;2023-02-21T05:21:24;20.08;;;10.78;;
24799;SDS011;12897;50.812;4.430;2023-02-21T05:23:51;20.10;;;10.23;;
24799;SDS011;12897;50.812;4.430;2023-02-21T05:26:23;19.30;;;10.48;;
24799;SDS011;12897;50.812;4.430;2023-02-21T05:28:56;20.08;;;10.78;;
24799;SDS011;12897;50.812;4.430;2023-02-21T05:31:24;18.77;;;9.70;;
24799;SDS011;12897;50.812;4.430;2023-02-21T05:33:51;20.75;;;9.90;;
24799;SDS011;12897;50.812;4.430;2023-02-21T05:36:20;18.00;;;9.85;;
24799;SDS011;12897;50.812;4.430;2023-02-21T05:38:50;15.72;;;8.70;;
24799;SDS011;12897;50.812;4.430;2023-02-21T05:41:20;19.15;;;9.63;;
24799;SDS011;12897;50.812;4.430;2023-02-21T05:43:48;17.10;;;9.38;;
24799;SDS011;12897;50.812;4.430;2023-02-21T05:46:17;19.35;;;9.83;;
24799;SDS011;12897;50.812;4.430;2023-02-21T05:48:49;18.55;;;9.98;;
24799;SDS011;12897;50.812;4.430;2023-02-21T05:51:17;16.60;;;9.25;;
24799;SDS011;12897;50.812;4.430;2023-02-21T05:53:46;18.55;;;9.55;;
24799;SDS011;12897;50.812;4.430;2023-02-21T05:56:14;17.87;;;9.70;;
24799;SDS011;12897;50.812;4.430;2023-02-21T05:58:42;17.98;;;9.50;;
24799;SDS011;12897;50.812;4.430;2023-02-21T06:01:10;19.05;;;10.55;;
24799;SDS011;12897;50.812;4.430;2023-02-21T06:03:38;17.40;;;10.55;;
24799;SDS011;12897;50.812;4.430;2023-02-21T06:06:05;18.50;;;9.45;;
24799;SDS011;12897;50.812;4.430;2023-02-21T06:08:40;18.32;;;9.38;;
24799;SDS011;12897;50.812;4.430;2023-02-21T06:11:08;18.07;;;9.90;;
24799;SDS011;12897;50.812;4.430;2023-02-21T06:13:36;20.37;;;9.58;;
24799;SDS011;12897;50.812;4.430;2023-02-21T06:16:04;18.40;;;9.68;;
24799;SDS011;12897;50.812;4.430;2023-02-21T06:18:31;16.45;;;9.20;;
24799;SDS011;12897;50.812;4.430;2023-02-21T06:20:59;19.00;;;9.70;;
24799;SDS011;12897;50.812;4.430;2023-02-21T06:23:27;17.25;;;9.23;;
24799;SDS011;12897;50.812;4.430;2023-02-21T06:25:54;17.50;;;7.85;;
24799;SDS011;12897;50.812;4.430;2023-02-21T06:28:26;16.00;;;8.83;;
24799;SDS011;12897;50.812;4.430;2023-02-21T06:30:55;18.73;;;9.00;;
24799;SDS011;12897;50.812;4.430;2023-02-21T06:33:24;22.98;;;12.18;;
24799;SDS011;12897;50.812;4.430;2023-02-21T06:35:51;19.57;;;9.33;;
24799;SDS011;12897;50.812;4.430;2023-02-21T06:38:19;18.00;;;8.43;;
24799;SDS011;12897;50.812;4.430;2023-02-21T06:40:46;16.12;;;8.45;;
24799;SDS011;12897;50.812;4.430;2023-02-21T06:43:14;17.52;;;8.30;;
24799;SDS011;12897;50.812;4.430;2023-02-21T06:45:42;19.27;;;9.45;;
24799;SDS011;12897;50.812;4.430;2023-02-21T06:48:13;20.00;;;8.70;;
24799;SDS011;12897;50.812;4.430;2023-02-21T06:50:42;20.20;;;8.93;;
24799;SDS011;12897;50.812;4.430;2023-02-21T06:53:10;20.05;;;10.55;;
24799;SDS011;12897;50.812;4.430;2023-02-21T06:55:37;18.67;;;9.58;;
24799;SDS011;12897;50.812;4.430;2023-02-21T06:58:05;17.65;;;9.28;;
24799;SDS011;12897;50.812;4.430;2023-02-21T07:00:33;20.62;;;9.38;;
24799;SDS011;12897;50.812;4.430;2023-02-21T07:03:01;19.40;;;9.85;;
24799;SDS011;12897;50.812;4.430;2023-02-21T07:05:29;20.97;;;11.05;;
24799;SDS011;12897;50.812;4.430;2023-02-21T07:08:00;22.70;;;10.37;;
24799;SDS011;12897;50.812;4.430;2023-02-21T07:10:28;23.20;;;10.70;;
24799;SDS011;12897;50.812;4.430;2023-02-21T07:12:56;23.55;;;10.28;;
24799;SDS011;12897;50.812;4.430;2023-02-21T07:15:24;20.70;;;10.43;;
24799;SDS011;12897;50.812;4.430;2023-02-21T07:17:51;21.27;;;10.65;;
24799;SDS011;12897;50.812;4.430;2023-02-21T07:20:19;23.27;;;11.38;;
24799;SDS011;12897;50.812;4.430;2023-02-21T07:22:46;25.97;;;10.48;;
24799;SDS011;12897;50.812;4.430;2023-02-21T07:25:14;28.23;;;12.78;;
24799;SDS011;12897;50.812;4.430;2023-02-21T07:27:45;30.20;;;12.58;;
24799;SDS011;12897;50.812;4.430;2023-02-21T07:30:17;29.35;;;13.35;;
24799;SDS011;12897;50.812;4.430;2023-02-21T07:32:45;29.12;;;13.65;;
24799;SDS011;12897;50.812;4.430;2023-02-21T07:35:13;27.73;;;13.85;;
24799;SDS011;12897;50.812;4.430;2023-02-21T07:37:40;30.48;;;13.90;;
24799;SDS011;12897;50.812;4.430;2023-02-21T07:40:08;33.08;;;14.85;;
24799;SDS011;12897;50.812;4.430;2023-02-21T07:42:36;34.75;;;16.75;;
24799;SDS011;12897;50.812;4.430;2023-02-21T07:45:06;34.75;;;15.45;;
24799;SDS011;12897;50.812;4.430;2023-02-21T07:47:34;33.10;;;15.08;;
24799;SDS011;12897;50.812;4.430;2023-02-21T07:50:01;38.48;;;15.63;;
24799;SDS011;12897;50.812;4.430;2023-02-21T07:52:30;35.15;;;16.97;;
24799;SDS011;12897;50.812;4.430;2023-02-21T07:54:58;34.75;;;17.32;;
24799;SDS011;12897;50.812;4.430;2023-02-21T07:57:26;36.95;;;16.42;;
24799;SDS011;12897;50.812;4.430;2023-02-21T07:59:53;36.68;;;17.40;;
24799;SDS011;12897;50.812;4.430;2023-02-21T08:02:21;37.08;;;16.45;;
24799;SDS011;12897;50.812;4.430;2023-02-21T08:04:49;36.65;;;17.65;;
24799;SDS011;12897;50.812;4.430;2023-02-21T08:07:17;36.13;;;17.07;;
24799;SDS011;12897;50.812;4.430;2023-02-21T08:09:50;37.35;;;17.85;;
24799;SDS011;12897;50.812;4.430;2023-02-21T08:12:15;38.30;;;17.48;;
24799;SDS011;12897;50.812;4.430;2023-02-21T08:14:42;40.88;;;17.85;;
24799;SDS011;12897;50.812;4.430;2023-02-21T08:17:10;41.92;;;18.25;;
24799;SDS011;12897;50.812;4.430;2023-02-21T08:19:39;39.60;;;18.52;;
24799;SDS011;12897;50.812;4.430;2023-02-21T08:22:06;41.30;;;19.82;;
24799;SDS011;12897;50.812;4.430;2023-02-21T08:24:34;41.53;;;20.10;;
24799;SDS011;12897;50.812;4.430;2023-02-21T08:27:01;39.83;;;20.02;;
24799;SDS011;12897;50.812;4.430;2023-02-21T08:29:29;38.20;;;18.20;;
24799;SDS011;12897;50.812;4.430;2023-02-21T08:31:56;42.98;;;19.57;;
24799;SDS011;12897;50.812;4.430;2023-02-21T08:34:24;37.98;;;18.73;;
24799;SDS011;12897;50.812;4.430;2023-02-21T08:36:53;44.17;;;19.53;;
24799;SDS011;12897;50.812;4.430;2023-02-21T08:39:21;38.53;;;18.45;;
24799;SDS011;12897;50.812;4.430;2023-02-21T08:41:49;37.17;;;17.37;;
24799;SDS011;12897;50.812;4.430;2023-02-21T08:44:17;35.55;;;17.85;;
24799;SDS011;12897;50.812;4.430;2023-02-21T08:46:47;38.83;;;17.77;;
24799;SDS011;12897;50.812;4.430;2023-02-21T08:49:15;38.42;;;18.57;;
24799;SDS011;12897;50.812;4.430;2023-02-21T08:51:42;39.90;;;19.50;;
24799;SDS011;12897;50.812;4.430;2023-02-21T08:54:10;40.20;;;18.37;;
24799;SDS011;12897;50.812;4.430;2023-02-21T08:56:39;38.55;;;17.75;;
24799;SDS011;12897;50.812;4.430;2023-02-21T08:59:07;34.48;;;17.40;;
24799;SDS011;12897;50.812;4.430;2023-02-21T09:01:35;39.23;;;17.42;;
24799;SDS011;12897;50.812;4.430;2023-02-21T09:04:03;40.65;;;17.60;;
24799;SDS011;12897;50.812;4.430;2023-02-21T09:06:31;30.27;;;15.68;;
24799;SDS011;12897;50.812;4.430;2023-02-21T09:08:59;35.23;;;15.88;;
24799;SDS011;12897;50.812;4.430;2023-02-21T09:11:28;35.15;;;16.35;;
24799;SDS011;12897;50.812;4.430;2023-02-21T09:13:56;34.33;;;16.35;;
24799;SDS011;12897;50.812;4.430;2023-02-21T09:16:23;33.67;;;16.27;;
24799;SDS011;12897;50.812;4.430;2023-02-21T09:18:55;36.53;;;18.12;;
24799;SDS011;12897;50.812;4.430;2023-02-21T09:21:27;37.40;;;17.90;;
24799;SDS011;12897;50.812;4.430;2023-02-21T09:24:01;38.10;;;16.70;;
24799;SDS011;12897;50.812;4.430;2023-02-21T09:26:30;33.50;;;16.50;;
24799;SDS011;12897;50.812;4.430;2023-02-21T09:28:57;34.30;;;16.85;;
24799;SDS011;12897;50.812;4.430;2023-02-21T09:34:03;33.28;;;15.72;;
24799;SDS011;12897;50.812;4.430;2023-02-21T09:36:34;36.60;;;16.25;;
24799;SDS011;12897;50.812;4.430;2023-02-21T09:39:04;35.45;;;16.30;;
24799;SDS011;12897;50.812;4.430;2023-02-21T09:41:33;34.33;;;17.23;;
24799;SDS011;12897;50.812;4.430;2023-02-21T09:44:08;36.25;;;16.87;;
24799;SDS011;12897;50.812;4.430;2023-02-21T09:46:48;31.62;;;15.78;;
24799;SDS011;12897;50.812;4.430;2023-02-21T09:49:21;35.88;;;17.65;;
24799;SDS011;12897;50.812;4.430;2023-02-21T09:51:51;39.63;;;18.65;;
24799;SDS011;12897;50.812;4.430;2023-02-21T09:54:24;41.85;;;18.42;;
24799;SDS011;12897;50.812;4.430;2023-02-21T09:57:00;38.90;;;18.98;;
24799;SDS011;12897;50.812;4.430;2023-02-21T09:59:29;38.48;;;18.55;;
24799;SDS011;12897;50.812;4.430;2023-02-21T10:04:55;35.58;;;16.97;;
24799;SDS011;12897;50.812;4.430;2023-02-21T10:07:38;33.50;;;16.02;;
24799;SDS011;12897;50.812;4.430;2023-02-21T10:13:01;32.30;;;16.32;;
24799;SDS011;12897;50.812;4.430;2023-02-21T10:15:47;38.42;;;17.70;;
24799;SDS011;12897;50.812;4.430;2023-02-21T10:18:39;36.88;;;17.35;;
24799;SDS011;12897;50.812;4.430;2023-02-21T10:21:24;40.45;;;19.15;;
24799;SDS011;12897;50.812;4.430;2023-02-21T10:23:56;34.90;;;16.85;;
24799;SDS011;12897;50.812;4.430;2023-02-21T10:26:28;38.42;;;17.35;;
24799;SDS011;12897;50.812;4.430;2023-02-21T10:28:57;34.50;;;16.82;;
24799;SDS011;12897;50.812;4.430;2023-02-21T10:31:31;32.45;;;16.00;;
24799;SDS011;12897;50.812;4.430;2023-02-21T10:33:59;37.08;;;16.27;;
24799;SDS011;12897;50.812;4.430;2023-02-21T10:36:28;31.55;;;15.55;;
24799;SDS011;12897;50.812;4.430;2023-02-21T10:41:37;35.83;;;16.73;;
24799;SDS011;12897;50.812;4.430;2023-02-21T10:44:08;41.48;;;18.05;;
24799;SDS011;12897;50.812;4.430;2023-02-21T10:46:44;40.52;;;16.85;;
24799;SDS011;12897;50.812;4.430;2023-02-21T10:49:21;41.73;;;18.15;;
24799;SDS011;12897;50.812;4.430;2023-02-21T10:52:04;38.40;;;18.40;;
24799;SDS011;12897;50.812;4.430;2023-02-21T10:54:38;48.50;;;19.57;;
24799;SDS011;12897;50.812;4.430;2023-02-21T10:57:07;43.08;;;19.67;;
24799;SDS011;12897;50.812;4.430;2023-02-21T10:59:38;41.63;;;19.75;;
24799;SDS011;12897;50.812;4.430;2023-02-21T11:02:25;48.35;;;20.90;;
24799;SDS011;12897;50.812;4.430;2023-02-21T11:05:05;47.62;;;21.42;;
24799;SDS011;12897;50.812;4.430;2023-02-21T11:07:39;50.35;;;21.05;;
24799;SDS011;12897;50.812;4.430;2023-02-21T11:10:29;57.88;;;23.27;;
24799;SDS011;12897;50.812;4.430;2023-02-21T11:13:18;60.08;;;26.73;;
24799;SDS011;12897;50.812;4.430;2023-02-21T11:15:47;87.10;;;31.00;;
24799;SDS011;12897;50.812;4.430;2023-02-21T11:20:50;64.55;;;26.80;;
24799;SDS011;12897;50.812;4.430;2023-02-21T11:23:20;60.95;;;28.15;;
24799;SDS011;12897;50.812;4.430;2023-02-21T11:25:51;59.58;;;25.75;;
24799;SDS011;12897;50.812;4.430;2023-02-21T11:28:21;55.58;;;26.75;;
24799;SDS011;12897;50.812;4.430;2023-02-21T11:31:34;61.25;;;27.25;;
24799;SDS011;12897;50.812;4.430;2023-02-21T11:33:29;62.00;;;26.05;;
24799;SDS011;12897;50.812;4.430;2023-02-21T11:36:14;53.75;;;23.00;;
24799;SDS011;12897;50.812;4.430;2023-02-21T11:38:44;50.00;;;23.07;;
24799;SDS011;12897;50.812;4.430;2023-02-21T11:41:29;55.55;;;24.23;;
24799;SDS011;12897;50.812;4.430;2023-02-21T11:43:58;56.08;;;25.08;;
24799;SDS011;12897;50.812;4.430;2023-02-21T11:52:05;67.90;;;30.32;;
24799;SDS011;12897;50.812;4.430;2023-02-21T11:54:26;72.75;;;32.90;;
24799;SDS011;12897;50.812;4.430;2023-02-21T12:02:13;57.20;;;24.52;;
24799;SDS011;12897;50.812;4.430;2023-02-21T12:07:24;52.25;;;23.80;;
24799;SDS011;12897;50.812;4.430;2023-02-21T12:10:04;52.10;;;23.42;;
24799;SDS011;12897;50.812;4.430;2023-02-21T12:12:32;53.00;;;23.87;;
24799;SDS011;12897;50.812;4.430;2023-02-21T12:15:06;50.95;;;23.75;;
24799;SDS011;12897;50.812;4.430;2023-02-21T12:20:29;46.77;;;22.67;;
24799;SDS011;12897;50.812;4.430;2023-02-21T12:25:57;37.75;;;17.67;;
24799;SDS011;12897;50.812;4.430;2023-02-21T12:31:41;40.52;;;18.85;;
24799;SDS011;12897;50.812;4.430;2023-02-21T12:51:00;49.20;;;21.07;;
24799;SDS011;12897;50.812;4.430;2023-02-21T12:53:40;37.58;;;19.17;;
24799;SDS011;12897;50.812;4.430;2023-02-21T12:56:23;36.50;;;18.70;;
24799;SDS011;12897;50.812;4.430;2023-02-21T12:59:17;37.45;;;19.55;;
24799;SDS011;12897;50.812;4.430;2023-02-21T13:07:40;42.83;;;20.17;;
24799;SDS011;12897;50.812;4.430;2023-02-21T13:10:16;41.63;;;19.62;;
24799;SDS011;12897;50.812;4.430;2023-02-21T13:15:29;41.68;;;20.10;;
24799;SDS011;12897;50.812;4.430;2023-02-21T13:18:05;41.28;;;20.40;;
24799;SDS011;12897;50.812;4.430;2023-02-21T13:20:33;40.52;;;19.15;;
24799;SDS011;12897;50.812;4.430;2023-02-21T13:31:32;29.70;;;17.15;;
24799;SDS011;12897;50.812;4.430;2023-02-21T13:34:04;31.40;;;17.75;;
24799;SDS011;12897;50.812;4.430;2023-02-21T13:39:21;32.58;;;17.32;;
24799;SDS011;12897;50.812;4.430;2023-02-21T13:41:51;35.17;;;16.55;;
24799;SDS011;12897;50.812;4.430;2023-02-21T13:44:30;28.12;;;16.05;;
24799;SDS011;12897;50.812;4.430;2023-02-21T13:47:07;33.78;;;18.30;;
24799;SDS011;12897;50.812;4.430;2023-02-21T13:49:55;32.53;;;18.92;;
24799;SDS011;12897;50.812;4.430;2023-02-21T13:57:44;35.20;;;18.40;;
24799;SDS011;12897;50.812;4.430;2023-02-21T14:18:50;33.58;;;18.10;;
24799;SDS011;12897;50.812;4.430;2023-02-21T14:21:29;36.23;;;18.40;;
24799;SDS011;12897;50.812;4.430;2023-02-21T14:29:36;35.55;;;18.87;;
24799;SDS011;12897;50.812;4.430;2023-02-21T14:37:26;28.60;;;15.00;;
24799;SDS011;12897;50.812;4.430;2023-02-21T14:39:59;26.10;;;14.67;;
24799;SDS011;12897;50.812;4.430;2023-02-21T14:50:35;26.60;;;15.32;;
24799;SDS011;12897;50.812;4.430;2023-02-21T14:58:52;25.88;;;13.98;;
24799;SDS011;12897;50.812;4.430;2023-02-21T15:04:20;25.95;;;15.20;;
24799;SDS011;12897;50.812;4.430;2023-02-21T15:06:52;27.82;;;16.87;;
24799;SDS011;12897;50.812;4.430;2023-02-21T15:09:25;28.95;;;15.25;;
24799;SDS011;12897;50.812;4.430;2023-02-21T15:11:53;31.62;;;15.08;;
24799;SDS011;12897;50.812;4.430;2023-02-21T15:14:25;29.87;;;16.17;;
24799;SDS011;12897;50.812;4.430;2023-02-21T15:16:55;28.62;;;16.90;;
24799;SDS011;12897;50.812;4.430;2023-02-21T15:19:33;26.23;;;16.32;;
24799;SDS011;12897;50.812;4.430;2023-02-21T15:22:14;29.37;;;16.60;;
24799;SDS011;12897;50.812;4.430;2023-02-21T15:24:59;26.15;;;13.90;;
24799;SDS011;12897;50.812;4.430;2023-02-21T15:27:32;32.38;;;17.02;;
24799;SDS011;12897;50.812;4.430;2023-02-21T15:30:09;26.60;;;14.53;;
24799;SDS011;12897;50.812;4.430;2023-02-21T15:32:44;26.95;;;14.87;;
24799;SDS011;12897;50.812;4.430;2023-02-21T15:35:37;30.37;;;15.00;;
24799;SDS011;12897;50.812;4.430;2023-02-21T15:38:04;22.45;;;13.68;;
24799;SDS011;12897;50.812;4.430;2023-02-21T15:40:33;24.80;;;14.00;;
24799;SDS011;12897;50.812;4.430;2023-02-21T15:43:02;26.23;;;13.87;;
24799;SDS011;12897;50.812;4.430;2023-02-21T15:45:44;26.20;;;14.40;;
24799;SDS011;12897;50.812;4.430;2023-02-21T15:48:15;22.93;;;15.08;;
24799;SDS011;12897;50.812;4.430;2023-02-21T15:50:44;31.82;;;15.78;;
24799;SDS011;12897;50.812;4.430;2023-02-21T15:53:23;25.17;;;15.00;;
24799;SDS011;12897;50.812;4.430;2023-02-21T15:55:46;23.02;;;13.90;;
24799;SDS011;12897;50.812;4.430;2023-02-21T15:58:18;21.70;;;13.72;;
24799;SDS011;12897;50.812;4.430;2023-02-21T16:01:01;26.20;;;13.78;;
24799;SDS011;12897;50.812;4.430;2023-02-21T16:03:36;22.20;;;12.75;;
24799;SDS011;12897;50.812;4.430;2023-02-21T16:11:24;28.80;;;14.83;;
24799;SDS011;12897;50.812;4.430;2023-02-21T16:19:43;26.02;;;15.75;;
24799;SDS011;12897;50.812;4.430;2023-02-21T16:25:03;26.95;;;15.00;;
24799;SDS011;12897;50.812;4.430;2023-02-21T16:27:33;24.67;;;15.32;;
24799;SDS011;12897;50.812;4.430;2023-02-21T16:30:01;31.42;;;16.90;;
24799;SDS011;12897;50.812;4.430;2023-02-21T16:32:30;34.73;;;17.32;;
24799;SDS011;12897;50.812;4.430;2023-02-21T16:37:27;31.42;;;16.90;;
24799;SDS011;12897;50.812;4.430;2023-02-21T16:39:54;32.17;;;18.75;;
24799;SDS011;12897;50.812;4.430;2023-02-21T16:42:22;28.73;;;16.42;;
24799;SDS011;12897;50.812;4.430;2023-02-21T16:44:50;30.80;;;16.87;;
24799;SDS011;12897;50.812;4.430;2023-02-21T16:47:17;31.42;;;17.67;;
24799;SDS011;12897;50.812;4.430;2023-02-21T16:49:46;29.20;;;16.30;;
24799;SDS011;12897;50.812;4.430;2023-02-21T16:52:14;30.92;;;17.23;;
24799;SDS011;12897;50.812;4.430;2023-02-21T16:54:42;30.68;;;17.12;;
24799;SDS011;12897;50.812;4.430;2023-02-21T16:57:10;34.60;;;17.05;;
24799;SDS011;12897;50.812;4.430;2023-02-21T16:59:37;31.85;;;18.45;;
24799;SDS011;12897;50.812;4.430;2023-02-21T17:02:05;31.48;;;17.37;;
24799;SDS011;12897;50.812;4.430;2023-02-21T17:04:36;33.83;;;18.90;;
24799;SDS011;12897;50.812;4.430;2023-02-21T17:07:03;33.85;;;18.05;;
24799;SDS011;12897;50.812;4.430;2023-02-21T17:09:34;50.63;;;25.45;;
24799;SDS011;12897;50.812;4.430;2023-02-21T17:12:05;47.48;;;23.10;;
24799;SDS011;12897;50.812;4.430;2023-02-21T17:14:33;41.45;;;21.15;;
24799;SDS011;12897;50.812;4.430;2023-02-21T17:17:01;39.70;;;21.23;;
24799;SDS011;12897;50.812;4.430;2023-02-21T17:19:28;38.63;;;19.25;;
24799;SDS011;12897;50.812;4.430;2023-02-21T17:21:56;40.92;;;19.32;;
24799;SDS011;12897;50.812;4.430;2023-02-21T17:24:25;34.78;;;19.27;;
24799;SDS011;12897;50.812;4.430;2023-02-21T17:26:52;33.20;;;18.82;;
24799;SDS011;12897;50.812;4.430;2023-02-21T17:29:20;32.13;;;17.85;;
24799;SDS011;12897;50.812;4.430;2023-02-21T17:31:54;35.38;;;18.50;;
24799;SDS011;12897;50.812;4.430;2023-02-21T17:34:23;38.55;;;19.90;;
24799;SDS011;12897;50.812;4.430;2023-02-21T17:36:51;39.23;;;20.12;;
24799;SDS011;12897;50.812;4.430;2023-02-21T17:39:19;37.28;;;20.12;;